sensor_id;sensor_type;location;lat;lon;timestamp;P1;durP1;ratioP1;P2;durP2;ratioP2
72864;SDS011;61000;48.120;11.548;2024-03-08T00:00:58;23.60;;;13.63;;
72864;SDS011;61000;48.120;11.548;2024-03-08T00:03:25;25.13;;;13.80;;
72864;SDS011;61000;48.120;11.548;2024-03-08T00:05:54;20.70;;;12.48;;
72864;SDS011;61000;48.120;11.548;2024-03-08T00:08:22;21.55;;;13.48;;
72864;SDS011;61000;48.120;11.548;2024-03-08T00:10:50;23.88;;;13.18;;
72864;SDS011;61000;48.120;11.548;2024-03-08T00:13:17;21.58;;;13.32;;
72864;SDS011;61000;48.120;11.548;2024-03-08T00:15:44;21.77;;;13.05;;
72864;SDS011;61000;48.120;11.548;2024-03-08T00:18:10;22.88;;;13.05;;
72864;SDS011;61000;48.120;11.548;2024-03-08T00:20:37;27.25;;;13.73;;
72864;SDS011;61000;48.120;11.548;2024-03-08T00:23:04;20.25;;;12.07;;
72864;SDS011;61000;48.120;11.548;2024-03-08T00:25:32;21.50;;;12.30;;
72864;SDS011;61000;48.120;11.548;2024-03-08T00:28:00;25.88;;;13.38;;
72864;SDS011;61000;48.120;11.548;2024-03-08T00:30:27;21.70;;;13.55;;
72864;SDS011;61000;48.120;11.548;2024-03-08T00:32:56;21.85;;;13.07;;
72864;SDS011;61000;48.120;11.548;2024-03-08T00:35:23;23.65;;;13.38;;
72864;SDS011;61000;48.120;11.548;2024-03-08T00:37:49;26.80;;;13.20;;
72864;SDS011;61000;48.120;11.548;2024-03-08T00:40:16;21.77;;;12.85;;
72864;SDS011;61000;48.120;11.548;2024-03-08T00:42:45;24.85;;;13.85;;
72864;SDS011;61000;48.120;11.548;2024-03-08T00:45:11;24.98;;;14.07;;
72864;SDS011;61000;48.120;11.548;2024-03-08T00:47:38;26.73;;;13.50;;
72864;SDS011;61000;48.120;11.548;2024-03-08T00:50:07;24.10;;;12.90;;
72864;SDS011;61000;48.120;11.548;2024-03-08T00:52:34;24.27;;;12.88;;
72864;SDS011;61000;48.120;11.548;2024-03-08T00:55:01;26.50;;;14.32;;
72864;SDS011;61000;48.120;11.548;2024-03-08T00:57:28;24.92;;;13.25;;
72864;SDS011;61000;48.120;11.548;2024-03-08T00:59:56;24.83;;;14.90;;
72864;SDS011;61000;48.120;11.548;2024-03-08T01:02:23;27.77;;;14.57;;
72864;SDS011;61000;48.120;11.548;2024-03-08T01:04:50;26.40;;;13.63;;
72864;SDS011;61000;48.120;11.548;2024-03-08T01:07:17;23.17;;;14.13;;
72864;SDS011;61000;48.120;11.548;2024-03-08T01:09:44;26.73;;;14.60;;
72864;SDS011;61000;48.120;11.548;2024-03-08T01:12:11;24.08;;;15.25;;
72864;SDS011;61000;48.120;11.548;2024-03-08T01:14:37;23.67;;;13.27;;
72864;SDS011;61000;48.120;11.548;2024-03-08T01:17:06;23.90;;;14.48;;
72864;SDS011;61000;48.120;11.548;2024-03-08T01:19:34;24.45;;;13.80;;
72864;SDS011;61000;48.120;11.548;2024-03-08T01:22:01;25.70;;;14.30;;
72864;SDS011;61000;48.120;11.548;2024-03-08T01:24:28;26.15;;;13.50;;
72864;SDS011;61000;48.120;11.548;2024-03-08T01:26:55;21.83;;;13.93;;
72864;SDS011;61000;48.120;11.548;2024-03-08T01:29:22;25.20;;;14.63;;
72864;SDS011;61000;48.120;11.548;2024-03-08T01:31:49;28.73;;;14.13;;
72864;SDS011;61000;48.120;11.548;2024-03-08T01:34:18;27.08;;;14.65;;
72864;SDS011;61000;48.120;11.548;2024-03-08T01:36:46;29.13;;;15.27;;
72864;SDS011;61000;48.120;11.548;2024-03-08T01:39:12;28.23;;;14.65;;
72864;SDS011;61000;48.120;11.548;2024-03-08T01:41:39;29.95;;;15.60;;
72864;SDS011;61000;48.120;11.548;2024-03-08T01:44:06;23.40;;;14.40;;
72864;SDS011;61000;48.120;11.548;2024-03-08T01:46:34;27.45;;;15.05;;
72864;SDS011;61000;48.120;11.548;2024-03-08T01:49:01;23.85;;;15.02;;
72864;SDS011;61000;48.120;11.548;2024-03-08T01:51:30;26.25;;;15.50;;
72864;SDS011;61000;48.120;11.548;2024-03-08T01:53:57;27.27;;;14.25;;
72864;SDS011;61000;48.120;11.548;2024-03-08T01:56:24;24.52;;;14.63;;
72864;SDS011;61000;48.120;11.548;2024-03-08T01:58:51;27.98;;;15.10;;
72864;SDS011;61000;48.120;11.548;2024-03-08T02:01:19;25.95;;;14.43;;
72864;SDS011;61000;48.120;11.548;2024-03-08T02:03:45;29.20;;;14.85;;
72864;SDS011;61000;48.120;11.548;2024-03-08T02:06:12;31.55;;;15.55;;
72864;SDS011;61000;48.120;11.548;2024-03-08T02:08:42;29.13;;;15.13;;
72864;SDS011;61000;48.120;11.548;2024-03-08T02:11:10;29.23;;;15.43;;
72864;SDS011;61000;48.120;11.548;2024-03-08T02:13:37;25.98;;;15.40;;
72864;SDS011;61000;48.120;11.548;2024-03-08T02:16:04;28.17;;;14.60;;
72864;SDS011;61000;48.120;11.548;2024-03-08T02:18:33;31.90;;;15.32;;
72864;SDS011;61000;48.120;11.548;2024-03-08T02:21:02;27.48;;;15.02;;
72864;SDS011;61000;48.120;11.548;2024-03-08T02:23:29;28.92;;;15.38;;
72864;SDS011;61000;48.120;11.548;2024-03-08T02:25:57;29.88;;;15.15;;
72864;SDS011;61000;48.120;11.548;2024-03-08T02:28:24;28.90;;;15.18;;
72864;SDS011;61000;48.120;11.548;2024-03-08T02:30:52;28.88;;;14.68;;
72864;SDS011;61000;48.120;11.548;2024-03-08T02:33:20;24.92;;;14.70;;
72864;SDS011;61000;48.120;11.548;2024-03-08T02:35:47;30.95;;;15.57;;
72864;SDS011;61000;48.120;11.548;2024-03-08T02:38:15;28.30;;;15.75;;
72864;SDS011;61000;48.120;11.548;2024-03-08T02:40:44;25.27;;;14.80;;
72864;SDS011;61000;48.120;11.548;2024-03-08T02:43:11;27.90;;;15.43;;
72864;SDS011;61000;48.120;11.548;2024-03-08T02:45:38;34.35;;;15.88;;
72864;SDS011;61000;48.120;11.548;2024-03-08T02:48:07;28.67;;;15.88;;
72864;SDS011;61000;48.120;11.548;2024-03-08T02:50:34;25.90;;;14.60;;
72864;SDS011;61000;48.120;11.548;2024-03-08T02:53:01;28.00;;;15.48;;
72864;SDS011;61000;48.120;11.548;2024-03-08T02:55:29;29.70;;;15.23;;
72864;SDS011;61000;48.120;11.548;2024-03-08T02:57:56;26.80;;;15.07;;
72864;SDS011;61000;48.120;11.548;2024-03-08T03:00:24;32.20;;;15.77;;
72864;SDS011;61000;48.120;11.548;2024-03-08T03:02:51;28.48;;;15.32;;
72864;SDS011;61000;48.120;11.548;2024-03-08T03:05:19;30.23;;;15.73;;
72864;SDS011;61000;48.120;11.548;2024-03-08T03:07:45;30.27;;;16.10;;
72864;SDS011;61000;48.120;11.548;2024-03-08T03:10:13;31.30;;;15.65;;
72864;SDS011;61000;48.120;11.548;2024-03-08T03:12:43;35.65;;;17.33;;
72864;SDS011;61000;48.120;11.548;2024-03-08T03:15:11;31.60;;;16.38;;
72864;SDS011;61000;48.120;11.548;2024-03-08T03:17:38;29.88;;;16.95;;
72864;SDS011;61000;48.120;11.548;2024-03-08T03:20:06;30.38;;;16.98;;
72864;SDS011;61000;48.120;11.548;2024-03-08T03:22:37;30.13;;;15.45;;
72864;SDS011;61000;48.120;11.548;2024-03-08T03:25:06;31.85;;;16.27;;
72864;SDS011;61000;48.120;11.548;2024-03-08T03:27:34;33.10;;;17.17;;
72864;SDS011;61000;48.120;11.548;2024-03-08T03:30:04;30.15;;;17.02;;
72864;SDS011;61000;48.120;11.548;2024-03-08T03:32:46;34.60;;;17.20;;
72864;SDS011;61000;48.120;11.548;2024-03-08T03:35:13;34.60;;;17.50;;
72864;SDS011;61000;48.120;11.548;2024-03-08T03:37:41;35.42;;;16.80;;
72864;SDS011;61000;48.120;11.548;2024-03-08T03:40:11;31.50;;;16.10;;
72864;SDS011;61000;48.120;11.548;2024-03-08T03:42:39;31.67;;;16.52;;
72864;SDS011;61000;48.120;11.548;2024-03-08T03:45:08;35.60;;;18.23;;
72864;SDS011;61000;48.120;11.548;2024-03-08T03:47:35;35.03;;;18.15;;
72864;SDS011;61000;48.120;11.548;2024-03-08T03:50:03;33.78;;;17.67;;
72864;SDS011;61000;48.120;11.548;2024-03-08T03:52:31;35.85;;;18.02;;
72864;SDS011;61000;48.120;11.548;2024-03-08T03:54:58;29.67;;;17.25;;
72864;SDS011;61000;48.120;11.548;2024-03-08T03:57:25;34.72;;;17.48;;
72864;SDS011;61000;48.120;11.548;2024-03-08T03:59:52;37.20;;;18.02;;
72864;SDS011;61000;48.120;11.548;2024-03-08T04:02:20;45.85;;;18.67;;
72864;SDS011;61000;48.120;11.548;2024-03-08T04:04:47;32.42;;;19.67;;
72864;SDS011;61000;48.120;11.548;2024-03-08T04:07:14;35.03;;;18.05;;
72864;SDS011;61000;48.120;11.548;2024-03-08T04:09:41;37.53;;;19.00;;
72864;SDS011;61000;48.120;11.548;2024-03-08T04:12:09;41.22;;;19.60;;
72864;SDS011;61000;48.120;11.548;2024-03-08T04:14:36;35.15;;;17.42;;
72864;SDS011;61000;48.120;11.548;2024-03-08T04:17:02;32.97;;;17.45;;
72864;SDS011;61000;48.120;11.548;2024-03-08T04:19:32;39.72;;;18.75;;
72864;SDS011;61000;48.120;11.548;2024-03-08T04:21:59;34.88;;;18.23;;
72864;SDS011;61000;48.120;11.548;2024-03-08T04:24:27;37.63;;;18.92;;
72864;SDS011;61000;48.120;11.548;2024-03-08T04:26:56;30.92;;;17.27;;
72864;SDS011;61000;48.120;11.548;2024-03-08T04:29:23;35.08;;;18.13;;
72864;SDS011;61000;48.120;11.548;2024-03-08T04:31:49;38.55;;;19.58;;
72864;SDS011;61000;48.120;11.548;2024-03-08T04:34:19;35.45;;;18.52;;
72864;SDS011;61000;48.120;11.548;2024-03-08T04:36:47;36.50;;;18.63;;
72864;SDS011;61000;48.120;11.548;2024-03-08T04:39:14;37.97;;;19.67;;
72864;SDS011;61000;48.120;11.548;2024-03-08T04:41:43;39.75;;;19.40;;
72864;SDS011;61000;48.120;11.548;2024-03-08T04:44:11;37.35;;;19.77;;
72864;SDS011;61000;48.120;11.548;2024-03-08T04:46:38;36.17;;;19.60;;
72864;SDS011;61000;48.120;11.548;2024-03-08T04:49:06;39.95;;;19.15;;
72864;SDS011;61000;48.120;11.548;2024-03-08T04:51:33;36.50;;;18.52;;
72864;SDS011;61000;48.120;11.548;2024-03-08T04:54:01;37.65;;;20.15;;
72864;SDS011;61000;48.120;11.548;2024-03-08T04:56:30;40.45;;;20.17;;
72864;SDS011;61000;48.120;11.548;2024-03-08T04:58:56;38.00;;;20.15;;
72864;SDS011;61000;48.120;11.548;2024-03-08T05:01:23;32.25;;;20.50;;
72864;SDS011;61000;48.120;11.548;2024-03-08T05:03:51;38.08;;;20.10;;
72864;SDS011;61000;48.120;11.548;2024-03-08T05:06:20;36.72;;;20.08;;
72864;SDS011;61000;48.120;11.548;2024-03-08T05:08:48;39.83;;;20.42;;
72864;SDS011;61000;48.120;11.548;2024-03-08T05:11:17;43.47;;;22.27;;
72864;SDS011;61000;48.120;11.548;2024-03-08T05:13:44;37.85;;;20.00;;
72864;SDS011;61000;48.120;11.548;2024-03-08T05:16:11;38.78;;;19.85;;
72864;SDS011;61000;48.120;11.548;2024-03-08T05:18:40;40.50;;;20.95;;
72864;SDS011;61000;48.120;11.548;2024-03-08T05:21:08;37.87;;;21.03;;
72864;SDS011;61000;48.120;11.548;2024-03-08T05:23:35;36.13;;;16.75;;
72864;SDS011;61000;48.120;11.548;2024-03-08T05:26:03;39.80;;;20.42;;
72864;SDS011;61000;48.120;11.548;2024-03-08T05:28:32;40.30;;;20.38;;
72864;SDS011;61000;48.120;11.548;2024-03-08T05:30:58;37.22;;;19.30;;
72864;SDS011;61000;48.120;11.548;2024-03-08T05:33:26;40.63;;;21.92;;
72864;SDS011;61000;48.120;11.548;2024-03-08T05:35:53;37.40;;;19.65;;
72864;SDS011;61000;48.120;11.548;2024-03-08T05:38:21;39.87;;;20.07;;
72864;SDS011;61000;48.120;11.548;2024-03-08T05:40:47;37.50;;;19.27;;
72864;SDS011;61000;48.120;11.548;2024-03-08T05:43:16;36.88;;;19.23;;
72864;SDS011;61000;48.120;11.548;2024-03-08T05:45:46;36.83;;;19.25;;
72864;SDS011;61000;48.120;11.548;2024-03-08T05:48:13;38.30;;;19.45;;
72864;SDS011;61000;48.120;11.548;2024-03-08T05:50:40;36.53;;;19.02;;
72864;SDS011;61000;48.120;11.548;2024-03-08T05:53:08;36.38;;;19.77;;
72864;SDS011;61000;48.120;11.548;2024-03-08T05:55:35;42.28;;;21.33;;
72864;SDS011;61000;48.120;11.548;2024-03-08T05:58:02;35.10;;;18.73;;
72864;SDS011;61000;48.120;11.548;2024-03-08T06:00:29;36.47;;;20.02;;
72864;SDS011;61000;48.120;11.548;2024-03-08T06:02:57;39.55;;;20.17;;
72864;SDS011;61000;48.120;11.548;2024-03-08T06:05:24;36.22;;;19.83;;
72864;SDS011;61000;48.120;11.548;2024-03-08T06:07:51;32.30;;;18.02;;
72864;SDS011;61000;48.120;11.548;2024-03-08T06:10:19;38.13;;;19.60;;
72864;SDS011;61000;48.120;11.548;2024-03-08T06:12:46;39.13;;;20.00;;
72864;SDS011;61000;48.120;11.548;2024-03-08T06:15:13;37.47;;;19.05;;
72864;SDS011;61000;48.120;11.548;2024-03-08T06:17:41;35.22;;;18.55;;
72864;SDS011;61000;48.120;11.548;2024-03-08T06:20:09;37.53;;;18.48;;
72864;SDS011;61000;48.120;11.548;2024-03-08T06:22:38;32.58;;;16.67;;
72864;SDS011;61000;48.120;11.548;2024-03-08T06:25:06;36.97;;;17.48;;
72864;SDS011;61000;48.120;11.548;2024-03-08T06:27:33;30.77;;;17.85;;
72864;SDS011;61000;48.120;11.548;2024-03-08T06:30:01;32.13;;;17.15;;
72864;SDS011;61000;48.120;11.548;2024-03-08T06:32:30;34.25;;;17.88;;
72864;SDS011;61000;48.120;11.548;2024-03-08T06:34:58;31.98;;;17.75;;
72864;SDS011;61000;48.120;11.548;2024-03-08T06:37:26;36.25;;;17.13;;
72864;SDS011;61000;48.120;11.548;2024-03-08T06:39:53;27.58;;;14.75;;
72864;SDS011;61000;48.120;11.548;2024-03-08T06:42:20;31.20;;;16.08;;
72864;SDS011;61000;48.120;11.548;2024-03-08T06:44:47;33.67;;;16.40;;
72864;SDS011;61000;48.120;11.548;2024-03-08T06:47:15;27.95;;;16.13;;
72864;SDS011;61000;48.120;11.548;2024-03-08T06:49:42;30.35;;;16.75;;
72864;SDS011;61000;48.120;11.548;2024-03-08T06:52:09;35.03;;;17.60;;
72864;SDS011;61000;48.120;11.548;2024-03-08T06:54:37;36.25;;;17.15;;
72864;SDS011;61000;48.120;11.548;2024-03-08T06:57:04;38.33;;;18.73;;
72864;SDS011;61000;48.120;11.548;2024-03-08T06:59:31;32.65;;;17.63;;
72864;SDS011;61000;48.120;11.548;2024-03-08T07:02:00;34.88;;;17.70;;
72864;SDS011;61000;48.120;11.548;2024-03-08T07:04:27;33.95;;;17.38;;
72864;SDS011;61000;48.120;11.548;2024-03-08T07:06:55;34.30;;;17.95;;
72864;SDS011;61000;48.120;11.548;2024-03-08T07:09:22;36.25;;;17.80;;
72864;SDS011;61000;48.120;11.548;2024-03-08T07:11:51;35.65;;;18.42;;
72864;SDS011;61000;48.120;11.548;2024-03-08T07:14:20;38.85;;;16.95;;
72864;SDS011;61000;48.120;11.548;2024-03-08T07:16:48;29.02;;;16.55;;
72864;SDS011;61000;48.120;11.548;2024-03-08T07:19:15;32.88;;;17.02;;
72864;SDS011;61000;48.120;11.548;2024-03-08T07:21:42;42.08;;;16.48;;
72864;SDS011;61000;48.120;11.548;2024-03-08T07:24:09;33.50;;;17.20;;
72864;SDS011;61000;48.120;11.548;2024-03-08T07:26:54;32.42;;;16.42;;
72864;SDS011;61000;48.120;11.548;2024-03-08T07:29:20;34.08;;;16.65;;
72864;SDS011;61000;48.120;11.548;2024-03-08T07:31:47;30.20;;;16.17;;
72864;SDS011;61000;48.120;11.548;2024-03-08T07:34:21;27.70;;;15.52;;
72864;SDS011;61000;48.120;11.548;2024-03-08T07:36:48;30.85;;;16.45;;
72864;SDS011;61000;48.120;11.548;2024-03-08T07:39:16;32.45;;;16.02;;
72864;SDS011;61000;48.120;11.548;2024-03-08T07:41:44;31.58;;;16.27;;
72864;SDS011;61000;48.120;11.548;2024-03-08T07:44:12;28.00;;;16.08;;
72864;SDS011;61000;48.120;11.548;2024-03-08T07:46:39;32.95;;;17.50;;
72864;SDS011;61000;48.120;11.548;2024-03-08T07:49:06;34.00;;;16.63;;
72864;SDS011;61000;48.120;11.548;2024-03-08T07:51:36;30.17;;;16.70;;
72864;SDS011;61000;48.120;11.548;2024-03-08T07:54:03;31.00;;;15.40;;
72864;SDS011;61000;48.120;11.548;2024-03-08T07:56:30;30.00;;;16.27;;
72864;SDS011;61000;48.120;11.548;2024-03-08T07:58:57;32.03;;;17.35;;
72864;SDS011;61000;48.120;11.548;2024-03-08T08:01:25;32.50;;;16.38;;
72864;SDS011;61000;48.120;11.548;2024-03-08T08:03:52;31.52;;;16.67;;
72864;SDS011;61000;48.120;11.548;2024-03-08T08:06:19;29.65;;;16.20;;
72864;SDS011;61000;48.120;11.548;2024-03-08T08:08:46;27.90;;;15.95;;
72864;SDS011;61000;48.120;11.548;2024-03-08T08:11:13;32.20;;;15.63;;
72864;SDS011;61000;48.120;11.548;2024-03-08T08:13:40;28.48;;;16.08;;
72864;SDS011;61000;48.120;11.548;2024-03-08T08:16:08;29.27;;;17.73;;
72864;SDS011;61000;48.120;11.548;2024-03-08T08:18:37;37.15;;;19.42;;
72864;SDS011;61000;48.120;11.548;2024-03-08T08:21:04;31.90;;;16.67;;
72864;SDS011;61000;48.120;11.548;2024-03-08T08:23:31;30.65;;;16.05;;
72864;SDS011;61000;48.120;11.548;2024-03-08T08:25:58;26.98;;;16.05;;
72864;SDS011;61000;48.120;11.548;2024-03-08T08:28:26;29.48;;;16.52;;
72864;SDS011;61000;48.120;11.548;2024-03-08T08:30:53;28.63;;;16.15;;
72864;SDS011;61000;48.120;11.548;2024-03-08T08:33:20;28.30;;;14.88;;
72864;SDS011;61000;48.120;11.548;2024-03-08T08:35:48;27.27;;;14.02;;
72864;SDS011;61000;48.120;11.548;2024-03-08T08:38:18;29.98;;;16.02;;
72864;SDS011;61000;48.120;11.548;2024-03-08T08:40:46;32.28;;;16.63;;
72864;SDS011;61000;48.120;11.548;2024-03-08T08:43:13;27.67;;;14.88;;
72864;SDS011;61000;48.120;11.548;2024-03-08T08:45:40;28.55;;;15.77;;
72864;SDS011;61000;48.120;11.548;2024-03-08T08:48:08;28.50;;;14.68;;
72864;SDS011;61000;48.120;11.548;2024-03-08T08:50:35;27.27;;;13.82;;
72864;SDS011;61000;48.120;11.548;2024-03-08T08:53:04;26.38;;;14.60;;
72864;SDS011;61000;48.120;11.548;2024-03-08T08:55:32;24.73;;;14.35;;
72864;SDS011;61000;48.120;11.548;2024-03-08T08:58:00;25.58;;;13.80;;
72864;SDS011;61000;48.120;11.548;2024-03-08T09:00:28;23.55;;;13.50;;
72864;SDS011;61000;48.120;11.548;2024-03-08T09:02:56;27.20;;;14.93;;
72864;SDS011;61000;48.120;11.548;2024-03-08T09:05:24;26.23;;;15.13;;
72864;SDS011;61000;48.120;11.548;2024-03-08T09:07:51;24.08;;;13.27;;
72864;SDS011;61000;48.120;11.548;2024-03-08T09:10:20;23.40;;;13.15;;
72864;SDS011;61000;48.120;11.548;2024-03-08T09:12:47;24.75;;;13.95;;
72864;SDS011;61000;48.120;11.548;2024-03-08T09:15:14;21.23;;;13.43;;
72864;SDS011;61000;48.120;11.548;2024-03-08T09:17:43;22.92;;;13.80;;
72864;SDS011;61000;48.120;11.548;2024-03-08T09:20:10;19.98;;;12.40;;
72864;SDS011;61000;48.120;11.548;2024-03-08T09:22:40;20.60;;;12.13;;
72864;SDS011;61000;48.120;11.548;2024-03-08T09:25:07;20.10;;;12.50;;
72864;SDS011;61000;48.120;11.548;2024-03-08T09:27:36;20.40;;;12.63;;
72864;SDS011;61000;48.120;11.548;2024-03-08T09:30:05;15.70;;;11.45;;
72864;SDS011;61000;48.120;11.548;2024-03-08T09:32:32;17.08;;;11.88;;
72864;SDS011;61000;48.120;11.548;2024-03-08T09:34:59;19.40;;;12.32;;
72864;SDS011;61000;48.120;11.548;2024-03-08T09:37:26;16.17;;;11.25;;
72864;SDS011;61000;48.120;11.548;2024-03-08T09:39:53;18.77;;;11.40;;
72864;SDS011;61000;48.120;11.548;2024-03-08T09:42:20;19.98;;;11.95;;
72864;SDS011;61000;48.120;11.548;2024-03-08T09:44:48;18.23;;;12.48;;
72864;SDS011;61000;48.120;11.548;2024-03-08T09:47:15;16.88;;;12.07;;
72864;SDS011;61000;48.120;11.548;2024-03-08T09:49:44;15.50;;;11.10;;
72864;SDS011;61000;48.120;11.548;2024-03-08T09:52:11;18.90;;;12.35;;
72864;SDS011;61000;48.120;11.548;2024-03-08T09:54:38;20.48;;;13.43;;
72864;SDS011;61000;48.120;11.548;2024-03-08T09:57:09;19.92;;;12.77;;
72864;SDS011;61000;48.120;11.548;2024-03-08T09:59:37;18.25;;;13.07;;
72864;SDS011;61000;48.120;11.548;2024-03-08T10:02:15;18.10;;;13.05;;
72864;SDS011;61000;48.120;11.548;2024-03-08T10:04:43;18.38;;;12.95;;
72864;SDS011;61000;48.120;11.548;2024-03-08T10:07:12;18.00;;;13.15;;
72864;SDS011;61000;48.120;11.548;2024-03-08T10:09:39;19.23;;;13.30;;
72864;SDS011;61000;48.120;11.548;2024-03-08T10:12:07;21.02;;;13.88;;
72864;SDS011;61000;48.120;11.548;2024-03-08T10:14:35;21.00;;;14.10;;
72864;SDS011;61000;48.120;11.548;2024-03-08T10:17:06;18.33;;;12.48;;
72864;SDS011;61000;48.120;11.548;2024-03-08T10:19:34;19.05;;;12.27;;
72864;SDS011;61000;48.120;11.548;2024-03-08T10:22:01;19.98;;;12.73;;
72864;SDS011;61000;48.120;11.548;2024-03-08T10:24:29;23.83;;;13.80;;
72864;SDS011;61000;48.120;11.548;2024-03-08T10:26:59;19.52;;;13.23;;
72864;SDS011;61000;48.120;11.548;2024-03-08T10:29:29;18.70;;;13.18;;
72864;SDS011;61000;48.120;11.548;2024-03-08T10:31:57;21.23;;;13.43;;
72864;SDS011;61000;48.120;11.548;2024-03-08T10:34:24;19.02;;;12.73;;
72864;SDS011;61000;48.120;11.548;2024-03-08T10:36:53;20.27;;;13.15;;
72864;SDS011;61000;48.120;11.548;2024-03-08T10:39:29;20.02;;;12.32;;
72864;SDS011;61000;48.120;11.548;2024-03-08T10:42:02;20.83;;;11.90;;
72864;SDS011;61000;48.120;11.548;2024-03-08T10:44:40;21.85;;;12.13;;
72864;SDS011;61000;48.120;11.548;2024-03-08T10:47:17;19.73;;;12.48;;
72864;SDS011;61000;48.120;11.548;2024-03-08T10:49:50;21.05;;;12.48;;
72864;SDS011;61000;48.120;11.548;2024-03-08T10:52:21;20.58;;;12.15;;
72864;SDS011;61000;48.120;11.548;2024-03-08T10:54:48;18.65;;;11.98;;
72864;SDS011;61000;48.120;11.548;2024-03-08T10:57:17;20.40;;;12.32;;
72864;SDS011;61000;48.120;11.548;2024-03-08T10:59:45;21.63;;;11.68;;
72864;SDS011;61000;48.120;11.548;2024-03-08T11:02:15;18.08;;;11.35;;
72864;SDS011;61000;48.120;11.548;2024-03-08T11:04:47;22.98;;;12.88;;
72864;SDS011;61000;48.120;11.548;2024-03-08T11:07:15;19.80;;;11.77;;
72864;SDS011;61000;48.120;11.548;2024-03-08T11:09:48;20.38;;;11.68;;
72864;SDS011;61000;48.120;11.548;2024-03-08T11:12:18;22.13;;;11.38;;
72864;SDS011;61000;48.120;11.548;2024-03-08T11:14:50;18.67;;;11.50;;
72864;SDS011;61000;48.120;11.548;2024-03-08T11:17:25;19.08;;;10.77;;
72864;SDS011;61000;48.120;11.548;2024-03-08T11:20:09;19.58;;;12.85;;
72864;SDS011;61000;48.120;11.548;2024-03-08T11:22:41;21.90;;;11.68;;
72864;SDS011;61000;48.120;11.548;2024-03-08T11:28:06;18.15;;;10.88;;
72864;SDS011;61000;48.120;11.548;2024-03-08T11:30:41;16.77;;;10.05;;
72864;SDS011;61000;48.120;11.548;2024-03-08T11:33:11;18.85;;;11.35;;
72864;SDS011;61000;48.120;11.548;2024-03-08T11:35:38;22.42;;;11.82;;
72864;SDS011;61000;48.120;11.548;2024-03-08T11:38:07;23.10;;;11.93;;
72864;SDS011;61000;48.120;11.548;2024-03-08T11:40:35;18.55;;;12.75;;
72864;SDS011;61000;48.120;11.548;2024-03-08T11:43:03;20.60;;;11.73;;
72864;SDS011;61000;48.120;11.548;2024-03-08T11:45:32;18.33;;;11.63;;
72864;SDS011;61000;48.120;11.548;2024-03-08T11:48:01;19.38;;;11.52;;
72864;SDS011;61000;48.120;11.548;2024-03-08T11:50:29;18.48;;;10.82;;
72864;SDS011;61000;48.120;11.548;2024-03-08T11:53:00;17.90;;;11.07;;
72864;SDS011;61000;48.120;11.548;2024-03-08T11:55:28;18.27;;;10.95;;
72864;SDS011;61000;48.120;11.548;2024-03-08T11:58:01;17.52;;;10.75;;
72864;SDS011;61000;48.120;11.548;2024-03-08T12:00:29;17.60;;;11.30;;
72864;SDS011;61000;48.120;11.548;2024-03-08T12:03:06;17.77;;;10.98;;
72864;SDS011;61000;48.120;11.548;2024-03-08T12:05:35;18.45;;;11.02;;
72864;SDS011;61000;48.120;11.548;2024-03-08T12:08:03;19.83;;;11.07;;
72864;SDS011;61000;48.120;11.548;2024-03-08T12:10:32;21.95;;;10.98;;
72864;SDS011;61000;48.120;11.548;2024-03-08T12:13:01;19.25;;;12.15;;
72864;SDS011;61000;48.120;11.548;2024-03-08T12:15:29;20.02;;;12.30;;
72864;SDS011;61000;48.120;11.548;2024-03-08T12:17:58;21.58;;;12.63;;
72864;SDS011;61000;48.120;11.548;2024-03-08T12:20:26;19.83;;;12.40;;
72864;SDS011;61000;48.120;11.548;2024-03-08T12:22:55;21.58;;;12.18;;
72864;SDS011;61000;48.120;11.548;2024-03-08T12:25:26;20.73;;;11.98;;
72864;SDS011;61000;48.120;11.548;2024-03-08T12:27:53;20.33;;;11.65;;
72864;SDS011;61000;48.120;11.548;2024-03-08T12:30:24;19.35;;;11.32;;
72864;SDS011;61000;48.120;11.548;2024-03-08T12:32:54;19.10;;;11.50;;
72864;SDS011;61000;48.120;11.548;2024-03-08T12:35:23;17.30;;;11.73;;
72864;SDS011;61000;48.120;11.548;2024-03-08T12:37:51;19.33;;;12.60;;
72864;SDS011;61000;48.120;11.548;2024-03-08T12:40:19;18.75;;;11.63;;
72864;SDS011;61000;48.120;11.548;2024-03-08T12:42:53;17.67;;;10.98;;
72864;SDS011;61000;48.120;11.548;2024-03-08T12:45:21;19.80;;;11.93;;
72864;SDS011;61000;48.120;11.548;2024-03-08T12:47:50;15.38;;;10.52;;
72864;SDS011;61000;48.120;11.548;2024-03-08T12:50:18;20.25;;;11.35;;
72864;SDS011;61000;48.120;11.548;2024-03-08T12:52:45;18.35;;;11.52;;
72864;SDS011;61000;48.120;11.548;2024-03-08T12:55:13;22.25;;;11.93;;
72864;SDS011;61000;48.120;11.548;2024-03-08T12:57:41;21.17;;;12.10;;
72864;SDS011;61000;48.120;11.548;2024-03-08T13:00:09;16.17;;;11.25;;
72864;SDS011;61000;48.120;11.548;2024-03-08T13:02:38;16.95;;;10.38;;
72864;SDS011;61000;48.120;11.548;2024-03-08T13:05:08;20.92;;;11.75;;
72864;SDS011;61000;48.120;11.548;2024-03-08T13:07:35;19.38;;;11.65;;
72864;SDS011;61000;48.120;11.548;2024-03-08T13:10:03;18.67;;;11.27;;
72864;SDS011;61000;48.120;11.548;2024-03-08T13:12:32;16.88;;;11.07;;
72864;SDS011;61000;48.120;11.548;2024-03-08T13:15:01;19.30;;;11.15;;
72864;SDS011;61000;48.120;11.548;2024-03-08T13:17:30;19.75;;;11.05;;
72864;SDS011;61000;48.120;11.548;2024-03-08T13:19:57;19.02;;;12.10;;
72864;SDS011;61000;48.120;11.548;2024-03-08T13:22:25;20.50;;;11.30;;
72864;SDS011;61000;48.120;11.548;2024-03-08T13:24:53;21.17;;;11.93;;
72864;SDS011;61000;48.120;11.548;2024-03-08T13:27:20;19.00;;;11.30;;
72864;SDS011;61000;48.120;11.548;2024-03-08T13:29:49;17.75;;;11.15;;
72864;SDS011;61000;48.120;11.548;2024-03-08T13:32:16;16.85;;;10.93;;
72864;SDS011;61000;48.120;11.548;2024-03-08T13:34:45;16.02;;;10.40;;
72864;SDS011;61000;48.120;11.548;2024-03-08T13:37:13;17.98;;;10.75;;
72864;SDS011;61000;48.120;11.548;2024-03-08T13:39:42;15.73;;;9.85;;
72864;SDS011;61000;48.120;11.548;2024-03-08T13:42:10;18.45;;;10.90;;
72864;SDS011;61000;48.120;11.548;2024-03-08T13:44:38;17.73;;;10.20;;
72864;SDS011;61000;48.120;11.548;2024-03-08T13:47:09;18.45;;;10.60;;
72864;SDS011;61000;48.120;11.548;2024-03-08T13:49:37;16.83;;;11.70;;
72864;SDS011;61000;48.120;11.548;2024-03-08T13:52:04;15.05;;;10.10;;
72864;SDS011;61000;48.120;11.548;2024-03-08T13:54:33;20.33;;;11.55;;
72864;SDS011;61000;48.120;11.548;2024-03-08T13:57:02;16.48;;;11.45;;
72864;SDS011;61000;48.120;11.548;2024-03-08T13:59:29;17.08;;;10.52;;
72864;SDS011;61000;48.120;11.548;2024-03-08T14:01:58;18.42;;;11.25;;
72864;SDS011;61000;48.120;11.548;2024-03-08T14:04:27;20.42;;;12.40;;
72864;SDS011;61000;48.120;11.548;2024-03-08T14:06:53;18.63;;;11.65;;
72864;SDS011;61000;48.120;11.548;2024-03-08T14:09:24;16.90;;;10.70;;
72864;SDS011;61000;48.120;11.548;2024-03-08T14:11:51;16.75;;;10.77;;
72864;SDS011;61000;48.120;11.548;2024-03-08T14:14:21;21.70;;;11.63;;
72864;SDS011;61000;48.120;11.548;2024-03-08T14:16:48;17.92;;;12.23;;